sensor_id;sensor_type;location;lat;lon;timestamp;P1;durP1;ratioP1;P2;durP2;ratioP2
18364;SDS011;9309;52.126;11.616;2024-03-08T00:01:31;37.60;;;15.67;;
18364;SDS011;9309;52.126;11.616;2024-03-08T00:03:59;38.00;;;14.13;;
18364;SDS011;9309;52.126;11.616;2024-03-08T00:06:25;40.63;;;15.07;;
18364;SDS011;9309;52.126;11.616;2024-03-08T00:08:52;32.70;;;14.20;;
18364;SDS011;9309;52.126;11.616;2024-03-08T00:11:18;33.27;;;14.50;;
18364;SDS011;9309;52.126;11.616;2024-03-08T00:13:45;37.30;;;14.70;;
18364;SDS011;9309;52.126;11.616;2024-03-08T00:16:12;35.80;;;14.90;;
18364;SDS011;9309;52.126;11.616;2024-03-08T00:18:39;36.47;;;15.33;;
18364;SDS011;9309;52.126;11.616;2024-03-08T00:21:07;34.67;;;14.07;;
18364;SDS011;9309;52.126;11.616;2024-03-08T00:23:35;35.23;;;15.03;;
18364;SDS011;9309;52.126;11.616;2024-03-08T00:26:02;42.00;;;14.97;;
18364;SDS011;9309;52.126;11.616;2024-03-08T00:28:29;32.33;;;13.90;;
18364;SDS011;9309;52.126;11.616;2024-03-08T00:30:55;29.90;;;14.23;;
18364;SDS011;9309;52.126;11.616;2024-03-08T00:33:22;39.93;;;15.43;;
18364;SDS011;9309;52.126;11.616;2024-03-08T00:35:49;35.50;;;15.10;;
18364;SDS011;9309;52.126;11.616;2024-03-08T00:38:17;37.47;;;14.70;;
18364;SDS011;9309;52.126;11.616;2024-03-08T00:40:44;30.60;;;14.23;;
18364;SDS011;9309;52.126;11.616;2024-03-08T00:43:11;33.27;;;14.80;;
18364;SDS011;9309;52.126;11.616;2024-03-08T00:45:38;31.67;;;14.13;;
18364;SDS011;9309;52.126;11.616;2024-03-08T00:48:07;28.37;;;13.27;;
18364;SDS011;9309;52.126;11.616;2024-03-08T00:50:34;32.50;;;13.57;;
18364;SDS011;9309;52.126;11.616;2024-03-08T00:53:00;33.73;;;13.73;;
18364;SDS011;9309;52.126;11.616;2024-03-08T00:55:28;37.73;;;14.00;;
18364;SDS011;9309;52.126;11.616;2024-03-08T00:57:55;33.73;;;14.73;;
18364;SDS011;9309;52.126;11.616;2024-03-08T01:00:22;32.73;;;14.73;;
18364;SDS011;9309;52.126;11.616;2024-03-08T01:02:49;36.73;;;14.90;;
18364;SDS011;9309;52.126;11.616;2024-03-08T01:05:15;39.77;;;15.37;;
18364;SDS011;9309;52.126;11.616;2024-03-08T01:07:42;35.47;;;14.00;;
18364;SDS011;9309;52.126;11.616;2024-03-08T01:10:11;32.40;;;15.33;;
18364;SDS011;9309;52.126;11.616;2024-03-08T01:12:39;33.20;;;13.40;;
18364;SDS011;9309;52.126;11.616;2024-03-08T01:15:08;28.17;;;14.40;;
18364;SDS011;9309;52.126;11.616;2024-03-08T01:17:35;33.43;;;14.83;;
18364;SDS011;9309;52.126;11.616;2024-03-08T01:20:03;32.77;;;15.23;;
18364;SDS011;9309;52.126;11.616;2024-03-08T01:22:30;31.50;;;13.87;;
18364;SDS011;9309;52.126;11.616;2024-03-08T01:24:57;38.37;;;15.30;;
18364;SDS011;9309;52.126;11.616;2024-03-08T01:27:23;40.87;;;14.57;;
18364;SDS011;9309;52.126;11.616;2024-03-08T01:29:51;35.20;;;14.37;;
18364;SDS011;9309;52.126;11.616;2024-03-08T01:32:18;31.47;;;13.90;;
18364;SDS011;9309;52.126;11.616;2024-03-08T01:34:48;32.60;;;14.47;;
18364;SDS011;9309;52.126;11.616;2024-03-08T01:37:14;34.30;;;14.30;;
18364;SDS011;9309;52.126;11.616;2024-03-08T01:39:41;34.00;;;14.93;;
18364;SDS011;9309;52.126;11.616;2024-03-08T01:42:08;26.43;;;14.57;;
18364;SDS011;9309;52.126;11.616;2024-03-08T01:44:37;31.53;;;13.47;;
18364;SDS011;9309;52.126;11.616;2024-03-08T01:47:05;32.80;;;13.27;;
18364;SDS011;9309;52.126;11.616;2024-03-08T01:49:33;32.57;;;14.70;;
18364;SDS011;9309;52.126;11.616;2024-03-08T01:51:59;33.00;;;14.20;;
18364;SDS011;9309;52.126;11.616;2024-03-08T01:54:27;35.87;;;14.67;;
18364;SDS011;9309;52.126;11.616;2024-03-08T01:56:55;35.07;;;15.20;;
18364;SDS011;9309;52.126;11.616;2024-03-08T01:59:23;34.33;;;13.73;;
18364;SDS011;9309;52.126;11.616;2024-03-08T02:01:52;32.80;;;14.53;;
18364;SDS011;9309;52.126;11.616;2024-03-08T02:04:22;27.70;;;12.63;;
18364;SDS011;9309;52.126;11.616;2024-03-08T02:06:49;36.47;;;14.97;;
18364;SDS011;9309;52.126;11.616;2024-03-08T02:09:16;33.53;;;14.23;;
18364;SDS011;9309;52.126;11.616;2024-03-08T02:11:43;35.97;;;15.07;;
18364;SDS011;9309;52.126;11.616;2024-03-08T02:14:11;34.30;;;14.37;;
18364;SDS011;9309;52.126;11.616;2024-03-08T02:16:37;38.23;;;14.73;;
18364;SDS011;9309;52.126;11.616;2024-03-08T02:19:04;32.50;;;14.47;;
18364;SDS011;9309;52.126;11.616;2024-03-08T02:21:36;32.67;;;13.87;;
18364;SDS011;9309;52.126;11.616;2024-03-08T02:24:03;39.37;;;14.53;;
18364;SDS011;9309;52.126;11.616;2024-03-08T02:26:30;33.77;;;14.13;;
18364;SDS011;9309;52.126;11.616;2024-03-08T02:28:57;33.07;;;15.33;;
18364;SDS011;9309;52.126;11.616;2024-03-08T02:31:24;39.57;;;14.53;;
18364;SDS011;9309;52.126;11.616;2024-03-08T02:33:50;31.23;;;13.80;;
18364;SDS011;9309;52.126;11.616;2024-03-08T02:36:17;39.80;;;15.03;;
18364;SDS011;9309;52.126;11.616;2024-03-08T02:38:45;33.70;;;13.83;;
18364;SDS011;9309;52.126;11.616;2024-03-08T02:41:11;38.63;;;15.07;;
18364;SDS011;9309;52.126;11.616;2024-03-08T02:43:38;27.70;;;12.77;;
18364;SDS011;9309;52.126;11.616;2024-03-08T02:46:05;31.13;;;13.77;;
18364;SDS011;9309;52.126;11.616;2024-03-08T02:48:32;39.77;;;14.63;;
18364;SDS011;9309;52.126;11.616;2024-03-08T02:50:58;29.67;;;14.13;;
18364;SDS011;9309;52.126;11.616;2024-03-08T02:53:27;38.00;;;14.67;;
18364;SDS011;9309;52.126;11.616;2024-03-08T02:55:55;33.27;;;14.70;;
18364;SDS011;9309;52.126;11.616;2024-03-08T02:58:22;35.37;;;14.90;;
18364;SDS011;9309;52.126;11.616;2024-03-08T03:00:48;37.83;;;13.47;;
18364;SDS011;9309;52.126;11.616;2024-03-08T03:03:15;30.27;;;13.83;;
18364;SDS011;9309;52.126;11.616;2024-03-08T03:05:42;35.70;;;14.53;;
18364;SDS011;9309;52.126;11.616;2024-03-08T03:08:09;29.00;;;13.13;;
18364;SDS011;9309;52.126;11.616;2024-03-08T03:10:36;31.93;;;14.07;;
18364;SDS011;9309;52.126;11.616;2024-03-08T03:13:04;34.77;;;13.83;;
18364;SDS011;9309;52.126;11.616;2024-03-08T03:15:31;29.57;;;13.50;;
18364;SDS011;9309;52.126;11.616;2024-03-08T03:17:58;27.17;;;13.40;;
18364;SDS011;9309;52.126;11.616;2024-03-08T03:20:25;42.73;;;13.20;;
18364;SDS011;9309;52.126;11.616;2024-03-08T03:22:57;33.37;;;15.27;;
18364;SDS011;9309;52.126;11.616;2024-03-08T03:25:26;34.40;;;14.20;;
18364;SDS011;9309;52.126;11.616;2024-03-08T03:27:58;33.30;;;14.33;;
18364;SDS011;9309;52.126;11.616;2024-03-08T03:30:26;30.47;;;14.80;;
18364;SDS011;9309;52.126;11.616;2024-03-08T03:32:57;31.10;;;13.53;;
18364;SDS011;9309;52.126;11.616;2024-03-08T03:35:25;34.73;;;13.60;;
18364;SDS011;9309;52.126;11.616;2024-03-08T03:37:52;40.73;;;14.30;;
18364;SDS011;9309;52.126;11.616;2024-03-08T03:40:27;39.37;;;15.17;;
18364;SDS011;9309;52.126;11.616;2024-03-08T03:42:54;34.70;;;14.57;;
18364;SDS011;9309;52.126;11.616;2024-03-08T03:45:21;32.93;;;14.73;;
18364;SDS011;9309;52.126;11.616;2024-03-08T03:47:49;36.00;;;14.50;;
18364;SDS011;9309;52.126;11.616;2024-03-08T03:50:16;31.57;;;13.03;;
18364;SDS011;9309;52.126;11.616;2024-03-08T03:52:44;33.80;;;14.17;;
18364;SDS011;9309;52.126;11.616;2024-03-08T03:55:11;34.30;;;15.57;;
18364;SDS011;9309;52.126;11.616;2024-03-08T03:57:38;39.97;;;14.30;;
18364;SDS011;9309;52.126;11.616;2024-03-08T04:00:05;32.80;;;14.70;;
18364;SDS011;9309;52.126;11.616;2024-03-08T04:02:37;36.47;;;15.23;;
18364;SDS011;9309;52.126;11.616;2024-03-08T04:05:06;32.60;;;16.07;;
18364;SDS011;9309;52.126;11.616;2024-03-08T04:07:34;37.50;;;14.83;;
18364;SDS011;9309;52.126;11.616;2024-03-08T04:10:01;39.80;;;14.20;;
18364;SDS011;9309;52.126;11.616;2024-03-08T04:12:28;34.50;;;14.77;;
18364;SDS011;9309;52.126;11.616;2024-03-08T04:14:56;43.33;;;14.53;;
18364;SDS011;9309;52.126;11.616;2024-03-08T04:17:23;36.20;;;15.63;;
18364;SDS011;9309;52.126;11.616;2024-03-08T04:19:50;35.30;;;15.43;;
18364;SDS011;9309;52.126;11.616;2024-03-08T04:22:18;33.97;;;14.37;;
18364;SDS011;9309;52.126;11.616;2024-03-08T04:24:45;37.40;;;14.77;;
18364;SDS011;9309;52.126;11.616;2024-03-08T04:27:12;33.40;;;14.73;;
18364;SDS011;9309;52.126;11.616;2024-03-08T04:29:40;37.70;;;15.50;;
18364;SDS011;9309;52.126;11.616;2024-03-08T04:32:07;39.67;;;15.67;;
18364;SDS011;9309;52.126;11.616;2024-03-08T04:34:34;40.77;;;16.37;;
18364;SDS011;9309;52.126;11.616;2024-03-08T04:37:01;39.27;;;16.40;;
18364;SDS011;9309;52.126;11.616;2024-03-08T04:39:31;35.83;;;14.90;;
18364;SDS011;9309;52.126;11.616;2024-03-08T04:41:58;34.30;;;15.47;;
18364;SDS011;9309;52.126;11.616;2024-03-08T04:44:29;33.37;;;14.20;;
18364;SDS011;9309;52.126;11.616;2024-03-08T04:46:56;35.57;;;16.13;;
18364;SDS011;9309;52.126;11.616;2024-03-08T04:49:23;36.23;;;14.87;;
18364;SDS011;9309;52.126;11.616;2024-03-08T04:51:49;37.90;;;16.13;;
18364;SDS011;9309;52.126;11.616;2024-03-08T04:54:16;38.53;;;16.23;;
18364;SDS011;9309;52.126;11.616;2024-03-08T04:56:44;41.00;;;15.77;;
18364;SDS011;9309;52.126;11.616;2024-03-08T04:59:11;42.53;;;16.40;;
18364;SDS011;9309;52.126;11.616;2024-03-08T05:01:38;38.17;;;17.07;;
18364;SDS011;9309;52.126;11.616;2024-03-08T05:04:05;37.33;;;16.17;;
18364;SDS011;9309;52.126;11.616;2024-03-08T05:06:32;36.13;;;15.73;;
18364;SDS011;9309;52.126;11.616;2024-03-08T05:08:58;34.57;;;16.37;;
18364;SDS011;9309;52.126;11.616;2024-03-08T05:11:25;37.77;;;16.40;;
18364;SDS011;9309;52.126;11.616;2024-03-08T05:13:53;39.73;;;15.27;;
18364;SDS011;9309;52.126;11.616;2024-03-08T05:16:20;36.63;;;16.67;;
18364;SDS011;9309;52.126;11.616;2024-03-08T05:18:49;43.10;;;16.30;;
18364;SDS011;9309;52.126;11.616;2024-03-08T05:21:16;42.70;;;17.50;;
18364;SDS011;9309;52.126;11.616;2024-03-08T05:23:45;41.13;;;16.70;;
18364;SDS011;9309;52.126;11.616;2024-03-08T05:26:12;40.40;;;17.03;;
18364;SDS011;9309;52.126;11.616;2024-03-08T05:28:39;43.87;;;17.23;;
18364;SDS011;9309;52.126;11.616;2024-03-08T05:31:07;39.73;;;16.83;;
18364;SDS011;9309;52.126;11.616;2024-03-08T05:33:33;42.53;;;16.80;;
18364;SDS011;9309;52.126;11.616;2024-03-08T05:36:00;48.67;;;18.30;;
18364;SDS011;9309;52.126;11.616;2024-03-08T05:38:27;38.00;;;16.80;;
18364;SDS011;9309;52.126;11.616;2024-03-08T05:40:54;36.43;;;16.63;;
18364;SDS011;9309;52.126;11.616;2024-03-08T05:43:21;54.63;;;18.17;;
18364;SDS011;9309;52.126;11.616;2024-03-08T05:45:47;42.73;;;18.07;;
18364;SDS011;9309;52.126;11.616;2024-03-08T05:48:16;45.27;;;16.67;;
18364;SDS011;9309;52.126;11.616;2024-03-08T05:50:43;45.67;;;17.57;;
18364;SDS011;9309;52.126;11.616;2024-03-08T05:53:10;42.33;;;16.77;;
18364;SDS011;9309;52.126;11.616;2024-03-08T05:55:38;50.60;;;18.13;;
18364;SDS011;9309;52.126;11.616;2024-03-08T05:58:05;48.10;;;18.83;;
18364;SDS011;9309;52.126;11.616;2024-03-08T06:00:33;41.77;;;18.07;;
18364;SDS011;9309;52.126;11.616;2024-03-08T06:03:01;46.53;;;19.03;;
18364;SDS011;9309;52.126;11.616;2024-03-08T06:05:30;45.73;;;18.43;;
18364;SDS011;9309;52.126;11.616;2024-03-08T06:07:56;47.23;;;18.73;;
18364;SDS011;9309;52.126;11.616;2024-03-08T06:10:23;52.83;;;19.00;;
18364;SDS011;9309;52.126;11.616;2024-03-08T06:12:50;44.07;;;18.10;;
18364;SDS011;9309;52.126;11.616;2024-03-08T06:15:17;45.57;;;18.17;;
18364;SDS011;9309;52.126;11.616;2024-03-08T06:17:45;38.37;;;17.20;;
18364;SDS011;9309;52.126;11.616;2024-03-08T06:20:12;41.60;;;18.10;;
18364;SDS011;9309;52.126;11.616;2024-03-08T06:22:40;43.70;;;18.83;;
18364;SDS011;9309;52.126;11.616;2024-03-08T06:25:07;53.50;;;19.33;;
18364;SDS011;9309;52.126;11.616;2024-03-08T06:27:36;42.87;;;18.37;;
18364;SDS011;9309;52.126;11.616;2024-03-08T06:30:03;49.27;;;17.83;;
18364;SDS011;9309;52.126;11.616;2024-03-08T06:32:31;51.20;;;19.47;;
18364;SDS011;9309;52.126;11.616;2024-03-08T06:35:00;51.10;;;19.30;;
18364;SDS011;9309;52.126;11.616;2024-03-08T06:37:29;51.33;;;19.93;;
18364;SDS011;9309;52.126;11.616;2024-03-08T06:39:58;61.13;;;20.63;;
18364;SDS011;9309;52.126;11.616;2024-03-08T06:42:25;50.40;;;19.80;;
18364;SDS011;9309;52.126;11.616;2024-03-08T06:44:52;52.73;;;19.40;;
18364;SDS011;9309;52.126;11.616;2024-03-08T06:47:21;49.37;;;20.07;;
18364;SDS011;9309;52.126;11.616;2024-03-08T06:49:50;49.60;;;20.70;;
18364;SDS011;9309;52.126;11.616;2024-03-08T06:52:17;55.80;;;20.73;;
18364;SDS011;9309;52.126;11.616;2024-03-08T06:54:44;56.13;;;21.00;;
18364;SDS011;9309;52.126;11.616;2024-03-08T06:57:12;47.10;;;20.07;;
18364;SDS011;9309;52.126;11.616;2024-03-08T06:59:39;50.07;;;20.60;;
18364;SDS011;9309;52.126;11.616;2024-03-08T07:02:06;58.27;;;20.47;;
18364;SDS011;9309;52.126;11.616;2024-03-08T07:04:34;40.87;;;19.07;;
18364;SDS011;9309;52.126;11.616;2024-03-08T07:07:06;48.77;;;20.87;;
18364;SDS011;9309;52.126;11.616;2024-03-08T07:09:34;45.50;;;20.10;;
18364;SDS011;9309;52.126;11.616;2024-03-08T07:12:01;56.73;;;21.40;;
18364;SDS011;9309;52.126;11.616;2024-03-08T07:14:30;51.83;;;20.20;;
18364;SDS011;9309;52.126;11.616;2024-03-08T07:16:57;43.37;;;18.90;;
18364;SDS011;9309;52.126;11.616;2024-03-08T07:19:23;43.47;;;19.40;;
18364;SDS011;9309;52.126;11.616;2024-03-08T07:21:50;48.90;;;20.43;;
18364;SDS011;9309;52.126;11.616;2024-03-08T07:24:17;56.53;;;21.07;;
18364;SDS011;9309;52.126;11.616;2024-03-08T07:27:03;52.63;;;21.67;;
18364;SDS011;9309;52.126;11.616;2024-03-08T07:29:31;54.53;;;20.00;;
18364;SDS011;9309;52.126;11.616;2024-03-08T07:31:58;52.90;;;20.33;;
18364;SDS011;9309;52.126;11.616;2024-03-08T07:34:37;48.40;;;20.20;;
18364;SDS011;9309;52.126;11.616;2024-03-08T07:37:05;41.93;;;19.17;;
18364;SDS011;9309;52.126;11.616;2024-03-08T07:39:36;56.00;;;21.50;;
18364;SDS011;9309;52.126;11.616;2024-03-08T07:42:03;53.47;;;21.07;;
18364;SDS011;9309;52.126;11.616;2024-03-08T07:44:29;49.33;;;19.47;;
18364;SDS011;9309;52.126;11.616;2024-03-08T07:46:58;49.37;;;19.97;;
18364;SDS011;9309;52.126;11.616;2024-03-08T07:49:25;47.47;;;20.30;;
18364;SDS011;9309;52.126;11.616;2024-03-08T07:51:51;47.97;;;19.43;;
18364;SDS011;9309;52.126;11.616;2024-03-08T07:54:18;45.93;;;19.63;;
18364;SDS011;9309;52.126;11.616;2024-03-08T07:56:45;51.17;;;20.17;;
18364;SDS011;9309;52.126;11.616;2024-03-08T07:59:11;62.60;;;21.47;;
18364;SDS011;9309;52.126;11.616;2024-03-08T08:01:39;51.30;;;20.10;;
18364;SDS011;9309;52.126;11.616;2024-03-08T08:04:06;47.17;;;18.73;;
18364;SDS011;9309;52.126;11.616;2024-03-08T08:06:37;43.73;;;18.27;;
18364;SDS011;9309;52.126;11.616;2024-03-08T08:09:06;42.17;;;19.73;;
18364;SDS011;9309;52.126;11.616;2024-03-08T08:11:35;48.87;;;19.23;;
18364;SDS011;9309;52.126;11.616;2024-03-08T08:14:01;43.57;;;20.43;;
18364;SDS011;9309;52.126;11.616;2024-03-08T08:16:28;60.27;;;19.47;;
18364;SDS011;9309;52.126;11.616;2024-03-08T08:18:56;55.13;;;20.37;;
18364;SDS011;9309;52.126;11.616;2024-03-08T08:21:23;47.03;;;19.40;;
18364;SDS011;9309;52.126;11.616;2024-03-08T08:23:51;47.30;;;19.13;;
18364;SDS011;9309;52.126;11.616;2024-03-08T08:26:17;49.97;;;19.53;;
18364;SDS011;9309;52.126;11.616;2024-03-08T08:28:44;45.27;;;20.17;;
18364;SDS011;9309;52.126;11.616;2024-03-08T08:31:11;47.53;;;20.33;;
18364;SDS011;9309;52.126;11.616;2024-03-08T08:33:38;51.87;;;19.57;;
18364;SDS011;9309;52.126;11.616;2024-03-08T08:36:06;51.33;;;21.17;;
18364;SDS011;9309;52.126;11.616;2024-03-08T08:38:35;50.20;;;20.37;;
18364;SDS011;9309;52.126;11.616;2024-03-08T08:41:01;56.80;;;21.60;;
18364;SDS011;9309;52.126;11.616;2024-03-08T09:10:28;45.57;;;20.17;;
18364;SDS011;9309;52.126;11.616;2024-03-08T09:12:54;50.23;;;19.97;;
18364;SDS011;9309;52.126;11.616;2024-03-08T09:15:21;33.10;;;16.27;;
18364;SDS011;9309;52.126;11.616;2024-03-08T09:17:48;43.77;;;18.77;;
18364;SDS011;9309;52.126;11.616;2024-03-08T09:20:16;36.27;;;16.43;;
18364;SDS011;9309;52.126;11.616;2024-03-08T09:22:43;47.23;;;18.67;;
18364;SDS011;9309;52.126;11.616;2024-03-08T09:25:10;26.27;;;10.40;;
18364;SDS011;9309;52.126;11.616;2024-03-08T09:27:38;42.50;;;17.83;;
18364;SDS011;9309;52.126;11.616;2024-03-08T09:30:06;18.13;;;9.00;;
18364;SDS011;9309;52.126;11.616;2024-03-08T09:32:33;42.70;;;17.13;;
18364;SDS011;9309;52.126;11.616;2024-03-08T09:35:00;39.80;;;17.37;;
18364;SDS011;9309;52.126;11.616;2024-03-08T09:37:27;40.50;;;17.17;;
18364;SDS011;9309;52.126;11.616;2024-03-08T09:39:54;41.47;;;17.30;;
18364;SDS011;9309;52.126;11.616;2024-03-08T09:42:20;41.63;;;18.70;;
18364;SDS011;9309;52.126;11.616;2024-03-08T09:44:49;38.33;;;17.00;;
18364;SDS011;9309;52.126;11.616;2024-03-08T09:47:16;38.00;;;17.13;;
18364;SDS011;9309;52.126;11.616;2024-03-08T09:49:44;40.33;;;15.27;;
18364;SDS011;9309;52.126;11.616;2024-03-08T09:52:11;43.07;;;16.87;;
18364;SDS011;9309;52.126;11.616;2024-03-08T09:54:38;39.10;;;16.97;;
18364;SDS011;9309;52.126;11.616;2024-03-08T09:57:09;44.23;;;16.70;;
18364;SDS011;9309;52.126;11.616;2024-03-08T09:59:36;42.63;;;16.33;;
18364;SDS011;9309;52.126;11.616;2024-03-08T10:02:15;36.67;;;15.83;;
18364;SDS011;9309;52.126;11.616;2024-03-08T10:04:43;37.37;;;15.90;;
18364;SDS011;9309;52.126;11.616;2024-03-08T10:07:12;40.97;;;16.73;;
18364;SDS011;9309;52.126;11.616;2024-03-08T10:09:39;31.97;;;13.47;;
18364;SDS011;9309;52.126;11.616;2024-03-08T10:46:47;30.57;;;14.83;;
18364;SDS011;9309;52.126;11.616;2024-03-08T10:49:26;29.67;;;12.87;;
18364;SDS011;9309;52.126;11.616;2024-03-08T10:52:01;33.53;;;15.30;;
18364;SDS011;9309;52.126;11.616;2024-03-08T10:54:29;35.17;;;15.20;;
18364;SDS011;9309;52.126;11.616;2024-03-08T10:56:58;27.47;;;13.60;;
18364;SDS011;9309;52.126;11.616;2024-03-08T10:59:27;27.93;;;13.83;;
18364;SDS011;9309;52.126;11.616;2024-03-08T11:01:55;27.03;;;13.70;;
18364;SDS011;9309;52.126;11.616;2024-03-08T11:04:22;36.40;;;16.03;;
18364;SDS011;9309;52.126;11.616;2024-03-08T11:06:50;34.10;;;15.80;;
18364;SDS011;9309;52.126;11.616;2024-03-08T11:09:29;31.97;;;14.20;;
18364;SDS011;9309;52.126;11.616;2024-03-08T11:14:45;28.80;;;14.53;;
18364;SDS011;9309;52.126;11.616;2024-03-08T14:05:06;28.65;;;13.85;;
18364;SDS011;9309;52.126;11.616;2024-03-08T14:07:34;27.67;;;14.23;;
18364;SDS011;9309;52.126;11.616;2024-03-08T14:10:00;25.27;;;12.77;;
18364;SDS011;9309;52.126;11.616;2024-03-08T14:12:28;24.77;;;13.48;;
18364;SDS011;9309;52.126;11.616;2024-03-08T14:14:56;25.08;;;13.15;;
18364;SDS011;9309;52.126;11.616;2024-03-08T14:17:24;23.50;;;12.17;;
18364;SDS011;9309;52.126;11.616;2024-03-08T14:19:52;24.37;;;13.03;;
18364;SDS011;9309;52.126;11.616;2024-03-08T14:32:10;25.43;;;9.97;;
18364;SDS011;9309;52.126;11.616;2024-03-08T14:34:38;19.27;;;10.13;;
18364;SDS011;9309;52.126;11.616;2024-03-08T14:37:05;22.07;;;10.10;;
18364;SDS011;9309;52.126;11.616;2024-03-08T14:39:36;20.83;;;10.23;;
18364;SDS011;9309;52.126;11.616;2024-03-08T14:42:03;17.53;;;8.90;;
18364;SDS011;9309;52.126;11.616;2024-03-08T14:44:31;22.30;;;9.80;;
18364;SDS011;9309;52.126;11.616;2024-03-08T14:46:58;18.77;;;9.77;;
18364;SDS011;9309;52.126;11.616;2024-03-08T14:49:26;24.30;;;10.13;;
18364;SDS011;9309;52.126;11.616;2024-03-08T14:51:54;19.83;;;10.37;;
18364;SDS011;9309;52.126;11.616;2024-03-08T14:54:23;21.37;;;9.50;;
18364;SDS011;9309;52.126;11.616;2024-03-08T14:56:51;19.87;;;9.60;;
18364;SDS011;9309;52.126;11.616;2024-03-08T14:59:17;19.10;;;9.57;;
18364;SDS011;9309;52.126;11.616;2024-03-08T15:01:44;15.93;;;8.20;;
18364;SDS011;9309;52.126;11.616;2024-03-08T15:04:11;18.37;;;9.50;;
18364;SDS011;9309;52.126;11.616;2024-03-08T15:06:39;18.97;;;9.40;;
18364;SDS011;9309;52.126;11.616;2024-03-08T15:09:07;18.70;;;9.70;;
18364;SDS011;9309;52.126;11.616;2024-03-08T15:11:37;17.97;;;9.03;;
18364;SDS011;9309;52.126;11.616;2024-03-08T15:14:04;18.60;;;9.30;;
18364;SDS011;9309;52.126;11.616;2024-03-08T15:16:35;19.80;;;9.33;;
18364;SDS011;9309;52.126;11.616;2024-03-08T15:19:02;20.97;;;10.53;;
18364;SDS011;9309;52.126;11.616;2024-03-08T15:21:30;16.77;;;9.73;;
18364;SDS011;9309;52.126;11.616;2024-03-08T15:24:00;18.73;;;9.67;;
18364;SDS011;9309;52.126;11.616;2024-03-08T15:26:27;19.63;;;10.10;;
18364;SDS011;9309;52.126;11.616;2024-03-08T15:28:55;22.10;;;10.67;;
18364;SDS011;9309;52.126;11.616;2024-03-08T16:03:32;21.87;;;10.07;;
18364;SDS011;9309;52.126;11.616;2024-03-08T16:05:59;21.53;;;9.93;;
18364;SDS011;9309;52.126;11.616;2024-03-08T16:08:26;19.40;;;8.87;;
18364;SDS011;9309;52.126;11.616;2024-03-08T16:10:53;19.13;;;9.23;;
18364;SDS011;9309;52.126;11.616;2024-03-08T16:13:21;17.23;;;8.27;;
18364;SDS011;9309;52.126;11.616;2024-03-08T16:15:51;21.00;;;9.00;;
18364;SDS011;9309;52.126;11.616;2024-03-08T16:18:19;18.17;;;8.97;;
18364;SDS011;9309;52.126;11.616;2024-03-08T16:20:49;15.83;;;8.47;;
18364;SDS011;9309;52.126;11.616;2024-03-08T16:23:16;16.90;;;8.27;;
